Munda, Solomon Islands
Current Conditions -  °F | °C
As of 12:00 PM on Sunday 26 Oct 2014 (Local Time) from AGGH Reporting Station
Haze Haze  
Wind Chill: 88°   Ceiling: 10000
Heat Index: 98°   Visibility: 6mi
Dew Point: 75°   Wind: 7mph
Humidity: 66%   Direction: 320°NW
Pressure: 29.8"   Gusts: NA
Location:  8.33°S, 157.26°E
Report Text: AGGH 260100Z 32006KT 9999 HZ FEW020 FEW021CB BKN100 31/24 Q1009
Loading
Personal Weather Stations






























Interactive Weather Map
Tropical Storm Tracking
New forecast layout! Learn more

10-Day Weather Forecast

Advertisements
Track Severe Weather on mobile